Dries Fellaini

Scout - Anderlecht
3 Dez 2028
Sonntag
Verarbeitung

Persönlichkeit

Anpassungsfähigkeit (9) Ehrgeiz (1) Kontroverse (10) Loyalität (11) Druck (8) Professionalität (1) Fairness (7) Temperament (13)

Profil

Trainerstil Demokratisch
Lizenz Kontinentale Pro
Entschlossenheit 8
Menschenführung 12
Motivation 6
Disziplin 9
Arbeitszufriedenheit
100%
Ermüdung
0%
Rolle Scout
Gehalt 64.2K p/W
Vertrag 14.03.2029

Leistung

Verhalten Gut
Trainingseffektivität
35%
Spielerentwicklung
50%
Verletzungsprävention
40%
Taktische Umsetzung
30%

Letzte Ereignisse

Nahm an einer Scouting-Besprechung teil 7T her
Spieler begutachtet 7T her
Spieler begutachtet 7T her
Nahm an einer Scouting-Besprechung teil 14T her
Spieler begutachtet 14T her
Spieler begutachtet 14T her
Spieler begutachtet 21T her
Spieler begutachtet 21T her

Aktuell beobachtet

81
Spieler Verein Status Fähigkeit Vertrauen Beobachtet Zuletzt beobachtet Letzte Stimme
Christos Mouzakitis Hull City Aktiv 151 / 147 40% 5 24.11.2028 -
Trey Nyoni Rotherham United Aktiv 149 / 149 40% 3 24.11.2028 -
Kiani Inge Groningen Aktiv 122 / 124 40% 2 24.11.2028 -
Mohammed Habib Sarwari Kariobangi Sharks Aktiv 79 / 80 40% 1 22.11.2028 -
Matias Siltanen Malmo FF Aktiv 136 / 134 40% 1 22.11.2028 -
Tiago Rodríguez Central Norte Aktiv 75 / 81 40% 1 22.11.2028 -
Ayyoub Bouaddi Stoke City Aktiv 151 / 158 40% 1 21.11.2028 -
Jofre Torrents Ajax Aktiv 139 / 140 40% 1 21.11.2028 -
Celías Ingenthron Platense Aktiv 111 / 125 40% 2 19.11.2028 -
Jan Cedilnik Chikhura Aktiv 87 / 92 40% 1 18.11.2028 -
Guy Noël Zohouri Le Havre AC Aktiv 130 / 134 40% 2 12.11.2028 -
Máximo Munarriz San Telmo Aktiv 97 / 105 40% 1 12.11.2028 -
Joel Ezra Enyimba Aktiv 108 / 104 40% 1 09.11.2028 -
Sebastian Rodriguez Houston Dynamo Aktiv 123 / 126 40% 2 07.11.2028 -
Idrissa Sabaly Valenciennes Aktiv 100 / 116 40% 1 07.11.2028 -
Kyllian Antonio RC Lens Aktiv 126 / 126 40% 1 06.11.2028 -
Aytor Herrera Mineros de Guayana Aktiv 93 / 92 40% 1 06.11.2028 -
Lisandro Piñero Banfield Aktiv 132 / 128 40% 3 10.10.2028 -
Tiago Gordillo San Miguel Aktiv 91 / 96 40% 1 10.10.2028 -
Ayanda Tibe Gor Mahia Aktiv 81 / 98 40% 1 10.10.2028 -
Christian Silva Santiago Wanderers Aktiv 83 / 89 40% 1 07.10.2028 -
Peyton Miller New England Revolution Aktiv 122 / 123 40% 1 07.10.2028 -
Tiziano Cabrera Central Norte Aktiv 97 / 95 40% 1 06.10.2028 -
Idris Ajiya Nasarawa United Aktiv 86 / 93 40% 1 06.10.2028 -
Santiago Cuellar Central Norte Aktiv 94 / 96 40% 1 04.10.2028 -
Mateo Faure BATE Aktiv 100 / 96 40% 1 04.10.2028 -
Paolo Dorini Estudiantes de Merida Aktiv 91 / 97 40% 2 03.10.2028 -
Tahiel Peralta Racing Club Aktiv 117 / 119 40% 1 03.10.2028 -
Musa Malik Ikorodu City Aktiv 97 / 96 40% 1 03.10.2028 -
Antoine Colassin Charleroi Verloren 124 / 127 62% 1 07.06.2028 -
Stanis Idumbo AC Ajaccio Aktiv 137 / 140 40% 1 31.12.2027 -
Bruno Gomes Internacional Aktiv 123 / 133 40% 2 15.12.2027 -
Tiago Santos LOSC Lille Aktiv 162 / 151 40% 2 10.12.2027 -
Sergi Cardona KAA Gent Aktiv 162 / 153 40% 1 10.12.2027 -
Samson Baidoo RC Lens Aktiv 155 / 153 40% 4 09.12.2027 -
Ismaël Doukouré RC Strasbourg Aktiv 152 / 144 40% 2 09.12.2027 -
Luciano Juba Bahia Aktiv 141 / 133 40% 3 05.12.2027 -
Soumaïla Coulibaly RC Strasbourg Aktiv 138 / 140 40% 1 05.12.2027 -
Danilo Botafogo Aktiv 142 / 139 40% 2 03.12.2027 -
Diego Coppola Paris FC Aktiv 149 / 149 40% 1 02.12.2027 -
Renan Lodi Atlético Mineiro Aktiv 145 / 136 40% 1 25.11.2027 -
Vitinho Botafogo Aktiv 134 / 135 40% 3 24.11.2027 -
Agustín Giay Palmeiras Aktiv 131 / 134 40% 3 24.11.2027 -
Jakub Moder Burnley Aktiv 144 / 142 40% 2 21.11.2027 -
Lucas Sanabria LA Galaxy Aktiv 144 / 139 40% 2 19.11.2027 -
Marcos Antonio Sport Recife Aktiv 134 / 139 40% 1 19.11.2027 -
Clément Akpa AJ Auxerre Aktiv 128 / 134 40% 3 15.11.2027 -
Ayumu Seko Le Havre AC Aktiv 134 / 137 40% 1 15.11.2027 -
Emil Breivik Molde Aktiv 128 / 133 40% 2 10.11.2027 -
Amadou Haïdara RC Lens Aktiv 149 / 147 40% 2 10.11.2027 -
Quentin Merlin Stade Rennais Aktiv 149 / 140 40% 1 09.11.2027 -
Ángelo Preciado Atlético Mineiro Aktiv 136 / 129 40% 1 05.11.2027 -
Abner Vinicius Olympique Lyonnais Aktiv 146 / 138 40% 1 05.11.2027 -
Andrew Omobamidele RC Strasbourg Aktiv 136 / 140 40% 1 02.11.2027 -
Victor Hernandez Santa Fe Aktiv 115 / 127 40% 1 02.11.2027 -
Mitchel Bakker Modena Aktiv 139 / 135 40% 1 31.10.2027 -
Beraldo Paris Saint-Germain Aktiv 165 / 159 40% 1 28.10.2027 -
Matheus Henrique Cruzeiro Aktiv 133 / 135 40% 1 27.10.2027 -
Fredrik Bjørkan Bodo/Glimt Aktiv 146 / 125 40% 2 24.10.2027 -
Santiago Salcedo Cruzeiro Aktiv 146 / 152 40% 1 24.10.2027 -
Lucas Høgsberg RC Strasbourg Aktiv 144 / 146 40% 1 22.10.2027 -
Otávio Paris FC Aktiv 144 / 138 40% 1 19.10.2027 -
Joris Chotard Stade Brestois Aktiv 140 / 138 40% 1 09.10.2027 -
Matheus Bidu Corinthians Aktiv 123 / 126 40% 1 09.10.2027 -
Riku Handa Gamba Osaka Aktiv 128 / 137 40% 2 07.10.2027 -
Jordan Teze Monaco Aktiv 146 / 143 40% 1 05.10.2027 -
Matheuzinho Corinthians Aktiv 127 / 129 40% 1 02.10.2027 -
Youssouf Ndayishimiye OGC Nice Aktiv 137 / 147 40% 1 30.09.2027 -
Vitão Flamengo Aktiv 139 / 141 40% 1 28.09.2027 -
Riku Yamane Yokohama F. Marinos Aktiv 130 / 131 40% 1 26.09.2027 -
Alexandro Bernabei Internacional Aktiv 125 / 135 40% 2 23.09.2027 -
Taiyo Koga Kashiwa Reysol Aktiv 137 / 141 40% 1 22.09.2027 -
Ismaël Bennacer Boca Juniors Aktiv 140 / 146 40% 1 14.09.2027 -
Odin Bjørtuft Bodo/Glimt Aktiv 118 / 128 40% 1 14.09.2027 -
Christian Kashima Antlers Aktiv 137 / 135 40% 1 13.09.2027 -
César Inga Universitario Aktiv 135 / 132 40% 1 08.09.2027 -
Niklas Dorsch Toronto FC Aktiv 115 / 132 40% 1 07.09.2027 -
Ilias Sebaoui Sint-Truiden Aktiv 134 / 127 58% 1 07.06.2027 -
Mile Svilar AS Roma Aktiv 159 / 164 40% 1 02.06.2027 -
Ivor Pandur Hull City Aktiv 134 / 123 40% 1 02.06.2027 -
Cisse Sandra Westerlo Aktiv 115 / 116 55% 1 01.01.2027 -